createdAt,value
2023-02-27T00:00:21.660Z,0.00
2023-02-27T00:01:21.629Z,0.00
2023-02-27T00:02:22.527Z,0.00
2023-02-27T00:03:22.497Z,0.00
2023-02-27T00:04:21.595Z,0.00
2023-02-27T00:05:21.587Z,0.00
2023-02-27T00:06:21.574Z,0.00
2023-02-27T00:07:21.581Z,0.00
2023-02-27T00:08:21.571Z,0.00
2023-02-27T00:09:21.585Z,0.00
2023-02-27T00:10:21.544Z,0.00
2023-02-27T00:11:22.526Z,0.00
2023-02-27T00:12:21.988Z,0.00
2023-02-27T00:13:21.564Z,0.00
2023-02-27T00:14:21.554Z,0.00
2023-02-27T00:15:21.542Z,0.00
2023-02-27T00:16:21.563Z,0.00
2023-02-27T00:17:21.519Z,0.00
2023-02-27T00:18:21.499Z,0.00
2023-02-27T00:19:21.598Z,0.00
2023-02-27T00:20:21.488Z,0.00
2023-02-27T00:21:21.491Z,0.00
2023-02-27T00:22:21.477Z,0.00
2023-02-27T00:23:21.479Z,0.00
2023-02-27T00:24:21.488Z,0.00
2023-02-27T00:25:21.466Z,0.00
2023-02-27T00:26:21.463Z,0.00
2023-02-27T00:27:21.457Z,0.00
2023-02-27T00:28:21.436Z,0.00
2023-02-27T00:29:21.461Z,0.00
2023-02-27T00:30:21.425Z,0.00
2023-02-27T00:31:21.462Z,0.00
2023-02-27T00:32:21.496Z,0.00
2023-02-27T00:33:21.415Z,0.00
2023-02-27T00:34:21.414Z,0.00
2023-02-27T00:35:21.434Z,0.00
2023-02-27T00:36:21.656Z,0.00
2023-02-27T00:37:21.402Z,0.00
2023-02-27T00:38:21.392Z,0.00
2023-02-27T00:39:21.390Z,0.00
2023-02-27T00:40:21.361Z,0.00
2023-02-27T00:41:21.406Z,0.00
2023-02-27T00:42:21.354Z,0.00
2023-02-27T00:43:21.360Z,0.00
2023-02-27T00:44:21.358Z,0.00
2023-02-27T00:45:21.356Z,0.00
2023-02-27T00:46:21.395Z,0.00
2023-02-27T00:47:21.345Z,0.00
2023-02-27T00:48:21.323Z,0.00
2023-02-27T00:49:21.354Z,0.00
2023-02-27T00:50:21.312Z,0.00
2023-02-27T00:51:21.315Z,0.00
2023-02-27T00:52:21.766Z,0.00
2023-02-27T00:53:21.292Z,0.00
2023-02-27T00:54:21.319Z,0.00
2023-02-27T00:55:21.278Z,0.00
2023-02-27T00:56:21.273Z,0.00
2023-02-27T00:57:21.304Z,0.00
2023-02-27T00:58:21.256Z,0.00
2023-02-27T00:59:21.259Z,0.00
2023-02-27T01:00:21.601Z,0.00
2023-02-27T01:01:21.233Z,0.00
2023-02-27T01:02:21.491Z,0.00
2023-02-27T01:03:21.589Z,0.00
2023-02-27T01:04:21.229Z,0.00
2023-02-27T01:05:21.222Z,0.00
2023-02-27T01:06:21.252Z,0.00
2023-02-27T01:07:22.049Z,0.00
2023-02-27T01:08:21.207Z,0.00
2023-02-27T01:09:21.290Z,0.00
2023-02-27T01:10:21.185Z,0.00
2023-02-27T01:11:21.182Z,0.00
2023-02-27T01:12:21.172Z,0.00
2023-02-27T01:13:21.186Z,0.00
2023-02-27T01:14:21.198Z,0.00
2023-02-27T01:15:21.167Z,0.00
2023-02-27T01:16:21.229Z,0.00
2023-02-27T01:17:21.160Z,0.00
2023-02-27T01:18:21.430Z,0.00
2023-02-27T01:19:21.161Z,0.00
2023-02-27T01:20:21.121Z,0.00
2023-02-27T01:21:21.125Z,0.00
2023-02-27T01:22:22.144Z,0.00
2023-02-27T01:23:21.119Z,0.00
2023-02-27T01:24:21.133Z,0.00
2023-02-27T01:25:21.279Z,0.00
2023-02-27T01:26:21.118Z,0.00
2023-02-27T01:27:21.099Z,0.00
2023-02-27T01:28:21.090Z,0.00
2023-02-27T01:29:21.098Z,0.00
2023-02-27T01:31:47.131Z,0.00
2023-02-27T01:32:47.166Z,0.00
2023-02-27T01:33:47.044Z,0.00
2023-02-27T01:34:47.049Z,0.00
2023-02-27T01:35:47.069Z,0.00
2023-02-27T01:36:47.052Z,0.00
2023-02-27T01:37:47.009Z,0.00
2023-02-27T01:38:47.023Z,0.00
2023-02-27T01:39:47.039Z,0.00
2023-02-27T01:40:47.004Z,0.00
2023-02-27T01:41:46.978Z,0.00
2023-02-27T01:42:46.966Z,0.00
2023-02-27T01:43:46.966Z,0.00
2023-02-27T01:44:47.004Z,0.00
2023-02-27T01:45:46.991Z,0.00
2023-02-27T01:46:46.988Z,0.00
2023-02-27T01:47:46.961Z,0.00
2023-02-27T01:48:47.056Z,0.00
2023-02-27T01:49:47.143Z,0.00
2023-02-27T01:50:46.924Z,0.00
2023-02-27T01:51:47.007Z,0.00
2023-02-27T01:52:46.900Z,0.00
2023-02-27T01:53:46.904Z,0.00
2023-02-27T01:54:46.902Z,0.00
2023-02-27T01:55:46.900Z,0.00
2023-02-27T01:56:46.876Z,0.00
2023-02-27T01:57:46.900Z,0.00
2023-02-27T01:58:46.897Z,0.00
2023-02-27T01:59:46.941Z,0.00
2023-02-27T02:00:47.666Z,0.00
2023-02-27T02:01:46.873Z,0.00
2023-02-27T02:02:46.870Z,0.00
2023-02-27T02:03:47.649Z,0.00
2023-02-27T02:04:46.848Z,0.00
2023-02-27T02:05:46.914Z,0.00
2023-02-27T02:06:46.907Z,0.00
2023-02-27T02:07:47.274Z,0.00
2023-02-27T02:08:47.714Z,0.00
2023-02-27T02:09:46.896Z,0.00
2023-02-27T02:10:46.797Z,0.00
2023-02-27T02:11:46.818Z,0.00
2023-02-27T02:12:46.775Z,0.00
2023-02-27T02:13:46.774Z,0.00
2023-02-27T02:14:46.792Z,0.00
2023-02-27T02:15:46.763Z,0.00
2023-02-27T02:16:46.812Z,0.00
2023-02-27T02:17:46.761Z,0.00
2023-02-27T02:18:46.749Z,0.00
2023-02-27T02:19:46.751Z,0.00
2023-02-27T02:20:46.741Z,0.00
2023-02-27T02:21:46.735Z,0.00
2023-02-27T02:22:46.733Z,0.00
2023-02-27T02:23:46.733Z,0.00
2023-02-27T02:24:46.701Z,0.00
2023-02-27T02:25:46.714Z,0.00
2023-02-27T02:26:46.689Z,0.00
2023-02-27T02:27:46.688Z,0.00
2023-02-27T02:28:46.682Z,0.00
2023-02-27T02:29:46.678Z,0.00
2023-02-27T02:30:46.760Z,0.00
2023-02-27T02:31:46.760Z,0.00
2023-02-27T02:32:46.659Z,0.00
2023-02-27T02:33:46.647Z,0.00
2023-02-27T02:34:46.635Z,0.00
2023-02-27T02:35:46.739Z,0.00
2023-02-27T02:36:46.623Z,0.00
2023-02-27T02:37:46.625Z,0.00
2023-02-27T02:38:46.682Z,0.00
2023-02-27T02:39:46.613Z,0.00
2023-02-27T02:40:46.695Z,0.00
2023-02-27T02:41:46.604Z,0.00
2023-02-27T02:42:46.606Z,0.00
2023-02-27T02:43:46.609Z,0.00
2023-02-27T02:44:46.913Z,0.00
2023-02-27T02:45:46.635Z,0.00
2023-02-27T02:46:46.966Z,0.00
2023-02-27T02:47:46.563Z,0.00
2023-02-27T02:48:46.560Z,0.00
2023-02-27T02:49:46.556Z,0.00
2023-02-27T02:50:46.563Z,0.00
2023-02-27T02:51:46.539Z,0.00
2023-02-27T02:52:46.532Z,0.00
2023-02-27T02:53:46.524Z,0.00
2023-02-27T02:54:46.519Z,0.00
2023-02-27T02:55:46.540Z,0.00
2023-02-27T02:56:46.489Z,0.00
2023-02-27T02:57:46.488Z,0.00
2023-02-27T02:58:46.488Z,0.00
2023-02-27T02:59:46.495Z,0.00
2023-02-27T03:00:46.644Z,0.00
2023-02-27T03:01:46.505Z,0.00
2023-02-27T03:02:46.458Z,0.00
2023-02-27T03:03:46.466Z,0.00
2023-02-27T03:04:46.547Z,0.00
2023-02-27T03:05:46.468Z,0.00
2023-02-27T03:06:46.659Z,0.00
2023-02-27T03:07:46.465Z,0.00
2023-02-27T03:08:46.425Z,0.00
2023-02-27T03:09:46.546Z,0.00
2023-02-27T03:10:46.424Z,0.00
2023-02-27T03:11:46.405Z,0.00
2023-02-27T03:12:46.394Z,0.00
2023-02-27T03:13:46.397Z,0.00
2023-02-27T03:14:46.395Z,0.00
2023-02-27T03:15:46.405Z,0.00
2023-02-27T03:16:46.363Z,0.00
2023-02-27T03:17:46.375Z,0.00
2023-02-27T03:18:46.363Z,0.00
2023-02-27T03:19:46.356Z,0.00
2023-02-27T03:20:46.370Z,0.00
2023-02-27T03:21:46.348Z,0.00
2023-02-27T03:22:46.356Z,0.00
2023-02-27T03:23:46.341Z,0.00
2023-02-27T03:24:46.337Z,0.00
2023-02-27T03:25:46.412Z,0.00
2023-02-27T03:26:46.316Z,0.00
2023-02-27T03:27:46.306Z,0.00
2023-02-27T03:28:46.393Z,0.00
2023-02-27T03:29:46.299Z,0.00
2023-02-27T03:30:46.375Z,0.00
2023-02-27T03:31:46.481Z,0.00
2023-02-27T03:32:46.291Z,0.00
2023-02-27T03:33:46.290Z,0.00
2023-02-27T03:34:46.252Z,0.00
2023-02-27T03:35:46.273Z,0.00
2023-02-27T03:36:46.259Z,0.00
2023-02-27T03:37:46.261Z,0.00
2023-02-27T03:38:46.225Z,0.00
2023-02-27T03:39:46.227Z,0.00
2023-02-27T03:40:46.881Z,0.00
2023-02-27T03:41:46.886Z,0.00
2023-02-27T03:42:46.211Z,0.00
2023-02-27T03:43:46.196Z,0.00
2023-02-27T03:44:46.192Z,0.00
2023-02-27T03:45:46.186Z,0.00
2023-02-27T03:46:46.184Z,0.00
2023-02-27T03:47:46.170Z,0.00
2023-02-27T03:48:46.163Z,0.00
2023-02-27T03:49:46.165Z,0.00
2023-02-27T03:50:46.151Z,0.00
2023-02-27T03:51:46.168Z,0.00
2023-02-27T03:52:46.142Z,0.00
2023-02-27T03:53:46.141Z,0.00
2023-02-27T03:54:46.128Z,0.00
2023-02-27T03:55:46.130Z,0.00
2023-02-27T03:56:46.990Z,0.00
2023-02-27T03:57:46.941Z,0.00
2023-02-27T03:58:46.109Z,0.00
2023-02-27T03:59:46.100Z,0.00
2023-02-27T04:00:46.165Z,0.00
2023-02-27T04:01:46.223Z,0.00
2023-02-27T04:02:46.621Z,0.00
2023-02-27T04:03:46.121Z,0.00
2023-02-27T04:04:46.179Z,0.00
2023-02-27T04:05:46.382Z,0.00
2023-02-27T04:06:47.098Z,0.00
2023-02-27T04:07:47.009Z,0.00
2023-02-27T04:08:47.196Z,0.00
2023-02-27T04:09:46.060Z,0.00
2023-02-27T04:10:46.060Z,0.00
2023-02-27T04:11:46.074Z,0.00
2023-02-27T04:12:46.275Z,0.00
2023-02-27T04:13:46.349Z,0.00
2023-02-27T04:14:46.322Z,0.00
2023-02-27T04:15:46.332Z,0.00
2023-02-27T04:16:46.310Z,0.00
2023-02-27T04:17:46.512Z,0.00
2023-02-27T04:18:46.523Z,0.00
2023-02-27T04:19:46.543Z,0.00
2023-02-27T04:20:46.132Z,0.00
2023-02-27T04:21:45.981Z,0.00
2023-02-27T04:22:46.550Z,0.00
2023-02-27T04:23:45.996Z,0.00
2023-02-27T04:24:46.042Z,0.00
2023-02-27T04:25:46.002Z,0.00
2023-02-27T04:26:46.784Z,0.00
2023-02-27T04:27:45.987Z,0.00
2023-02-27T04:28:46.332Z,0.00
2023-02-27T04:29:45.983Z,0.00
2023-02-27T04:30:46.058Z,0.00
2023-02-27T04:31:46.105Z,0.00
2023-02-27T04:32:45.931Z,0.00
2023-02-27T04:33:45.892Z,0.00
2023-02-27T04:34:45.927Z,0.00
2023-02-27T04:35:45.893Z,0.00
2023-02-27T04:36:45.940Z,0.00
2023-02-27T04:37:45.886Z,0.00
2023-02-27T04:38:45.883Z,0.00
2023-02-27T04:39:46.263Z,0.00
2023-02-27T04:40:45.862Z,0.00
2023-02-27T04:41:45.845Z,0.00
2023-02-27T04:42:45.856Z,0.00
2023-02-27T04:43:45.833Z,0.00
2023-02-27T04:44:46.359Z,0.00
2023-02-27T04:45:46.360Z,0.00
2023-02-27T04:46:45.814Z,0.00
2023-02-27T04:47:46.331Z,0.00
2023-02-27T04:48:46.481Z,0.00
2023-02-27T04:49:45.812Z,0.00
2023-02-27T04:50:45.939Z,0.00
2023-02-27T04:51:45.782Z,0.00
2023-02-27T04:52:45.800Z,0.00
2023-02-27T04:53:45.769Z,0.00
2023-02-27T04:54:45.769Z,0.00
2023-02-27T04:55:45.778Z,0.00
2023-02-27T04:56:45.782Z,0.00
2023-02-27T04:57:45.799Z,0.00
2023-02-27T04:58:45.777Z,0.00
2023-02-27T04:59:46.430Z,0.00
2023-02-27T05:00:45.825Z,0.00
2023-02-27T05:01:45.889Z,0.00
2023-02-27T05:02:45.910Z,0.00
2023-02-27T05:03:45.864Z,0.00
2023-02-27T05:04:45.714Z,0.00
2023-02-27T05:05:45.714Z,0.00
2023-02-27T05:06:45.722Z,0.00
2023-02-27T05:07:46.631Z,0.00
2023-02-27T05:08:45.673Z,0.00
2023-02-27T05:09:45.689Z,0.00
2023-02-27T05:10:45.900Z,0.00
2023-02-27T05:11:46.506Z,0.00
2023-02-27T05:12:46.650Z,0.00
2023-02-27T05:13:46.090Z,0.00
2023-02-27T05:14:45.920Z,0.00
2023-02-27T05:15:46.212Z,0.00
2023-02-27T05:16:46.027Z,0.00
2023-02-27T05:17:45.966Z,0.00
2023-02-27T05:18:46.590Z,0.00
2023-02-27T05:19:46.497Z,0.00
2023-02-27T05:20:45.703Z,0.00
2023-02-27T05:21:46.559Z,0.00
2023-02-27T05:22:46.468Z,0.00
2023-02-27T05:23:46.626Z,0.00
2023-02-27T05:24:45.578Z,0.00
2023-02-27T05:25:45.581Z,0.00
2023-02-27T05:26:45.593Z,0.00
2023-02-27T05:27:45.615Z,0.00
2023-02-27T05:28:45.594Z,0.00
2023-02-27T05:29:45.570Z,0.00
2023-02-27T05:30:45.544Z,0.00
2023-02-27T05:31:45.609Z,0.00
2023-02-27T05:32:45.553Z,0.00
2023-02-27T05:33:45.532Z,0.00
2023-02-27T05:34:45.564Z,0.00
2023-02-27T05:35:45.531Z,0.00
2023-02-27T05:36:45.589Z,0.00
2023-02-27T05:37:45.609Z,0.00
2023-02-27T05:38:45.618Z,0.00
2023-02-27T05:39:45.487Z,0.00
2023-02-27T05:40:45.674Z,0.00
2023-02-27T05:41:45.476Z,0.00
2023-02-27T05:42:45.495Z,0.00
2023-02-27T05:43:45.462Z,0.00
2023-02-27T05:44:45.460Z,0.00
2023-02-27T05:45:45.462Z,0.00
2023-02-27T05:46:45.433Z,0.00
2023-02-27T05:47:45.447Z,0.00
2023-02-27T05:48:45.442Z,0.00
2023-02-27T05:49:45.426Z,0.00
2023-02-27T05:50:45.417Z,0.00
2023-02-27T05:51:45.415Z,0.00
2023-02-27T05:52:45.400Z,0.00
2023-02-27T05:53:45.469Z,0.00
2023-02-27T05:54:45.399Z,0.00
2023-02-27T05:55:45.401Z,0.00
2023-02-27T05:56:45.389Z,0.00
2023-02-27T05:57:45.379Z,0.00
2023-02-27T05:58:45.386Z,0.00
2023-02-27T05:59:45.384Z,0.00
2023-02-27T06:00:45.382Z,0.00
2023-02-27T06:01:46.490Z,0.00
2023-02-27T06:02:45.358Z,0.00
2023-02-27T06:03:45.536Z,0.00
2023-02-27T06:04:45.340Z,0.00
2023-02-27T06:05:45.340Z,0.00
2023-02-27T06:06:45.323Z,0.00
2023-02-27T06:07:45.319Z,0.00
2023-02-27T06:08:45.328Z,0.00
2023-02-27T06:09:45.628Z,0.00
2023-02-27T06:10:45.297Z,0.00
2023-02-27T06:11:45.645Z,5.62
2023-02-27T06:12:45.307Z,5.62
2023-02-27T06:13:45.298Z,5.62
2023-02-27T06:14:45.876Z,5.62
2023-02-27T06:15:45.283Z,5.62
2023-02-27T06:16:45.297Z,5.62
2023-02-27T06:17:45.276Z,5.62
2023-02-27T06:18:45.277Z,11.25
2023-02-27T06:19:45.875Z,11.25
2023-02-27T06:20:45.249Z,11.25
2023-02-27T06:21:45.240Z,11.25
2023-02-27T06:22:45.939Z,11.25
2023-02-27T06:23:45.245Z,16.88
2023-02-27T06:24:45.323Z,16.88
2023-02-27T06:25:45.438Z,16.88
2023-02-27T06:26:45.445Z,16.88
2023-02-27T06:27:45.205Z,22.50
2023-02-27T06:28:45.201Z,22.50
2023-02-27T06:29:45.181Z,22.50
2023-02-27T06:30:46.438Z,22.50
2023-02-27T06:31:45.184Z,28.12
2023-02-27T06:32:45.188Z,28.12
2023-02-27T06:33:45.188Z,28.12
2023-02-27T06:34:45.206Z,33.75
2023-02-27T06:35:45.620Z,33.75
2023-02-27T06:36:45.604Z,33.75
2023-02-27T06:37:45.127Z,33.75
2023-02-27T06:38:45.152Z,39.38
2023-02-27T06:39:45.635Z,39.38
2023-02-27T06:40:45.664Z,39.38
2023-02-27T06:41:45.265Z,39.38
2023-02-27T06:42:45.101Z,45.00
2023-02-27T06:43:45.140Z,45.00
2023-02-27T06:44:45.131Z,45.00
2023-02-27T06:45:45.099Z,50.62
2023-02-27T06:46:45.082Z,50.62
2023-02-27T06:47:45.071Z,50.62
2023-02-27T06:48:45.057Z,50.62
2023-02-27T06:49:45.080Z,56.25
2023-02-27T06:50:45.046Z,56.25
2023-02-27T06:51:45.210Z,56.25
2023-02-27T06:52:45.037Z,61.88
2023-02-27T06:53:45.048Z,61.88
2023-02-27T06:54:45.046Z,61.88
2023-02-27T06:55:45.075Z,61.88
2023-02-27T06:56:45.018Z,67.50
2023-02-27T06:57:45.013Z,67.50
2023-02-27T06:58:45.023Z,67.50
2023-02-27T06:59:45.038Z,67.50
2023-02-27T07:00:45.346Z,73.12
2023-02-27T07:01:45.032Z,73.12
2023-02-27T07:02:45.010Z,73.12
2023-02-27T07:03:45.417Z,73.12
2023-02-27T07:04:45.228Z,78.75
2023-02-27T07:05:45.371Z,78.75
2023-02-27T07:07:34.108Z,78.75
2023-02-27T07:07:45.112Z,78.75
2023-02-27T07:09:00.814Z,84.38
2023-02-27T07:09:44.950Z,84.38
2023-02-27T07:10:45.062Z,84.38
2023-02-27T07:11:45.408Z,84.38
2023-02-27T07:12:45.417Z,90.00
2023-02-27T07:13:44.909Z,90.00
2023-02-27T07:14:45.090Z,90.00
2023-02-27T07:15:45.149Z,90.00
2023-02-27T07:16:44.896Z,95.62
2023-02-27T07:17:44.943Z,95.62
2023-02-27T07:18:44.885Z,95.62
2023-02-27T07:19:44.907Z,95.62
2023-02-27T07:20:44.921Z,95.62
2023-02-27T07:21:44.894Z,101.25
2023-02-27T07:22:44.869Z,101.25
2023-02-27T07:23:45.109Z,101.25
2023-02-27T07:24:45.159Z,101.25
2023-02-27T07:25:45.143Z,106.88
2023-02-27T07:26:44.829Z,106.88
2023-02-27T07:27:44.828Z,106.88
2023-02-27T07:28:44.943Z,112.50
2023-02-27T07:29:44.861Z,112.50
2023-02-27T07:32:10.847Z,112.50
2023-02-27T07:33:10.778Z,112.50
2023-02-27T07:34:10.775Z,112.50
2023-02-27T07:35:10.767Z,112.50
2023-02-27T07:36:10.843Z,112.50
2023-02-27T07:37:10.797Z,118.12
2023-02-27T07:38:10.780Z,118.12
2023-02-27T07:39:10.779Z,118.12
2023-02-27T07:40:10.789Z,118.12
2023-02-27T07:41:21.273Z,118.12
2023-02-27T07:42:10.726Z,123.75
2023-02-27T07:43:10.730Z,123.75
2023-02-27T07:44:10.822Z,123.75
2023-02-27T07:45:10.829Z,123.75
2023-02-27T07:46:10.818Z,123.75
2023-02-27T07:47:10.958Z,123.75
2023-02-27T07:48:10.853Z,129.38
2023-02-27T07:49:10.672Z,129.38
2023-02-27T07:50:10.676Z,129.38
2023-02-27T07:51:10.708Z,129.38
2023-02-27T07:52:10.722Z,129.38
2023-02-27T07:53:10.645Z,129.38
2023-02-27T07:54:10.884Z,129.38
2023-02-27T07:55:10.947Z,135.00
2023-02-27T07:56:10.707Z,129.38
2023-02-27T07:57:10.777Z,135.00
2023-02-27T07:58:10.637Z,135.00
2023-02-27T07:59:10.653Z,135.00
2023-02-27T08:00:10.636Z,135.00
2023-02-27T08:01:10.773Z,135.00
2023-02-27T08:02:10.940Z,140.62
2023-02-27T08:03:10.935Z,140.62
2023-02-27T08:04:10.646Z,140.62
2023-02-27T08:05:10.625Z,140.62
2023-02-27T08:06:10.593Z,140.62
2023-02-27T08:07:10.593Z,140.62
2023-02-27T08:08:10.571Z,140.62
2023-02-27T08:09:10.576Z,146.25
2023-02-27T08:10:10.642Z,146.25
2023-02-27T08:11:10.624Z,146.25
2023-02-27T08:12:10.655Z,146.25
2023-02-27T08:13:10.523Z,146.25
2023-02-27T08:14:10.660Z,146.25
2023-02-27T08:15:10.670Z,146.25
2023-02-27T08:16:10.777Z,151.88
2023-02-27T08:17:10.513Z,151.88
2023-02-27T08:18:10.689Z,151.88
2023-02-27T08:19:10.499Z,151.88
2023-02-27T08:20:10.498Z,151.88
2023-02-27T08:21:10.856Z,151.88
2023-02-27T08:22:10.866Z,151.88
2023-02-27T08:23:10.886Z,151.88
2023-02-27T08:24:10.824Z,157.50
2023-02-27T08:25:10.457Z,157.50
2023-02-27T08:26:10.535Z,157.50
2023-02-27T08:27:10.775Z,157.50
2023-02-27T08:28:10.913Z,157.50
2023-02-27T08:29:10.904Z,157.50
2023-02-27T08:30:10.943Z,157.50
2023-02-27T08:31:10.444Z,157.50
2023-02-27T08:32:10.492Z,163.12
2023-02-27T08:33:10.400Z,163.12
2023-02-27T08:34:11.026Z,163.12
2023-02-27T08:35:10.390Z,163.12
2023-02-27T08:36:10.605Z,163.12
2023-02-27T08:37:10.379Z,163.12
2023-02-27T08:38:10.549Z,163.12
2023-02-27T08:39:10.560Z,163.12
2023-02-27T08:40:10.566Z,163.12
2023-02-27T08:41:10.656Z,168.75
2023-02-27T08:42:10.651Z,168.75
2023-02-27T08:43:10.799Z,168.75
2023-02-27T08:44:10.358Z,168.75
2023-02-27T08:45:10.390Z,168.75
2023-02-27T08:46:10.778Z,168.75
2023-02-27T08:47:10.317Z,168.75
2023-02-27T08:48:10.310Z,168.75
2023-02-27T08:49:11.051Z,168.75
2023-02-27T08:50:10.294Z,168.75
2023-02-27T08:51:11.056Z,174.38
2023-02-27T08:52:10.771Z,174.38
2023-02-27T08:53:10.433Z,174.38
2023-02-27T08:54:10.270Z,174.38
2023-02-27T08:55:11.168Z,174.38
2023-02-27T08:56:10.790Z,174.38
2023-02-27T08:57:10.497Z,174.38
2023-02-27T08:58:10.756Z,174.38
2023-02-27T08:59:10.273Z,174.38
2023-02-27T09:00:11.273Z,174.38
2023-02-27T09:01:10.412Z,174.38
2023-02-27T09:02:10.574Z,174.38
2023-02-27T09:03:10.909Z,180.00
2023-02-27T09:04:11.069Z,180.00
2023-02-27T09:05:10.199Z,174.38
2023-02-27T09:06:10.203Z,180.00
2023-02-27T09:07:10.179Z,180.00
2023-02-27T09:08:10.168Z,180.00
2023-02-27T09:09:10.168Z,180.00
2023-02-27T09:10:10.250Z,180.00
2023-02-27T09:11:10.359Z,180.00
2023-02-27T09:12:10.373Z,180.00
2023-02-27T09:13:10.193Z,180.00
2023-02-27T09:14:10.281Z,180.00
2023-02-27T09:15:10.178Z,180.00
2023-02-27T09:16:10.252Z,180.00
2023-02-27T09:17:10.188Z,180.00
2023-02-27T09:18:10.297Z,180.00
2023-02-27T09:19:10.283Z,180.00
2023-02-27T09:20:10.418Z,180.00
2023-02-27T09:21:10.423Z,185.62
2023-02-27T09:22:10.456Z,185.62
2023-02-27T09:23:10.102Z,185.62
2023-02-27T09:24:19.840Z,185.62
2023-02-27T09:25:10.545Z,185.62
2023-02-27T09:26:10.068Z,185.62
2023-02-27T09:27:10.759Z,185.62
2023-02-27T09:28:10.067Z,185.62
2023-02-27T09:29:10.062Z,185.62
2023-02-27T09:30:10.063Z,185.62
2023-02-27T09:31:10.083Z,185.62
2023-02-27T09:32:10.171Z,185.62
2023-02-27T09:33:10.037Z,185.62
2023-02-27T09:34:10.015Z,185.62
2023-02-27T09:35:10.004Z,185.62
2023-02-27T09:36:10.136Z,185.62
2023-02-27T09:37:10.120Z,185.62
2023-02-27T09:38:10.120Z,185.62
2023-02-27T09:39:10.043Z,185.62
2023-02-27T09:40:10.136Z,185.62
2023-02-27T09:41:10.146Z,185.62
2023-02-27T09:42:09.958Z,185.62
2023-02-27T09:43:10.004Z,185.62
2023-02-27T09:44:09.980Z,185.62
2023-02-27T09:45:09.971Z,185.62
2023-02-27T09:46:09.982Z,191.25
2023-02-27T09:47:09.977Z,191.25
2023-02-27T09:48:09.988Z,196.88
2023-02-27T09:49:10.097Z,202.50
2023-02-27T09:50:09.901Z,213.75
2023-02-27T09:51:10.206Z,247.50
2023-02-27T09:52:10.011Z,292.50
2023-02-27T09:53:10.317Z,348.75
2023-02-27T09:54:09.906Z,382.50
2023-02-27T09:55:09.925Z,388.12
2023-02-27T09:56:09.924Z,376.88
2023-02-27T09:57:09.935Z,405.00
2023-02-27T09:58:09.939Z,416.25
2023-02-27T09:59:10.052Z,427.50
2023-02-27T10:00:10.061Z,438.75
2023-02-27T10:01:10.062Z,455.62
2023-02-27T10:02:10.070Z,472.50
2023-02-27T10:03:10.240Z,478.12
2023-02-27T10:04:11.104Z,495.00
2023-02-27T10:05:09.782Z,483.75
2023-02-27T10:06:09.800Z,466.88
2023-02-27T10:07:09.795Z,450.00
2023-02-27T10:08:09.800Z,427.50
2023-02-27T10:09:09.781Z,405.00
2023-02-27T10:10:09.919Z,371.25
2023-02-27T10:11:09.929Z,337.50
2023-02-27T10:12:09.943Z,303.75
2023-02-27T10:13:10.040Z,281.25
2023-02-27T10:14:09.744Z,236.25
2023-02-27T10:15:09.850Z,219.38
2023-02-27T10:16:09.871Z,213.75
2023-02-27T10:17:10.070Z,213.75
2023-02-27T10:18:25.567Z,213.75
2023-02-27T10:19:10.291Z,208.12
2023-02-27T10:20:09.702Z,202.50
2023-02-27T10:21:10.409Z,202.50
2023-02-27T10:22:10.398Z,196.88
2023-02-27T10:23:10.433Z,196.88
2023-02-27T10:24:10.538Z,196.88
2023-02-27T10:25:21.437Z,196.88
2023-02-27T10:26:09.670Z,196.88
2023-02-27T10:27:09.810Z,196.88
2023-02-27T10:28:10.341Z,196.88
2023-02-27T10:29:10.038Z,196.88
2023-02-27T10:30:11.246Z,202.50
2023-02-27T10:31:09.773Z,202.50
2023-02-27T10:32:09.875Z,202.50
2023-02-27T10:33:09.882Z,202.50
2023-02-27T10:34:09.600Z,202.50
2023-02-27T10:35:09.605Z,202.50
2023-02-27T10:36:10.313Z,208.12
2023-02-27T10:37:09.588Z,219.38
2023-02-27T10:38:09.595Z,230.62
2023-02-27T10:39:09.601Z,225.00
2023-02-27T10:40:09.608Z,219.38
2023-02-27T10:41:09.626Z,213.75
2023-02-27T10:42:09.652Z,225.00
2023-02-27T10:43:09.629Z,225.00
2023-02-27T10:44:09.526Z,219.38
2023-02-27T10:45:09.545Z,219.38
2023-02-27T10:46:09.547Z,219.38
2023-02-27T10:47:09.543Z,225.00
2023-02-27T10:48:09.563Z,247.50
2023-02-27T10:49:09.572Z,264.38
2023-02-27T10:50:09.584Z,236.25
2023-02-27T10:51:09.490Z,258.75
2023-02-27T10:52:09.618Z,247.50
2023-02-27T10:53:09.619Z,241.88
2023-02-27T10:54:09.628Z,213.75
2023-02-27T10:55:09.649Z,213.75
2023-02-27T10:56:09.658Z,275.62
2023-02-27T10:57:09.683Z,292.50
2023-02-27T10:58:09.515Z,360.00
2023-02-27T10:59:09.710Z,421.88
2023-02-27T11:00:09.709Z,416.25
2023-02-27T11:01:09.855Z,365.62
2023-02-27T11:02:09.405Z,309.38
2023-02-27T11:03:09.675Z,354.38
2023-02-27T11:04:09.417Z,376.88
2023-02-27T11:05:09.784Z,365.62
2023-02-27T11:06:09.375Z,393.75
2023-02-27T11:07:09.363Z,433.12
2023-02-27T11:08:09.414Z,399.38
2023-02-27T11:09:09.493Z,410.62
2023-02-27T11:10:09.619Z,478.12
2023-02-27T11:11:09.624Z,483.75
2023-02-27T11:12:09.331Z,506.25
2023-02-27T11:13:09.626Z,495.00
2023-02-27T11:14:09.311Z,450.00
2023-02-27T11:15:09.320Z,444.38
2023-02-27T11:16:09.346Z,551.25
2023-02-27T11:17:09.369Z,556.88
2023-02-27T11:18:09.330Z,556.88
2023-02-27T11:19:09.464Z,472.50
2023-02-27T11:20:09.547Z,511.88
2023-02-27T11:21:09.568Z,517.50
2023-02-27T11:22:09.684Z,450.00
2023-02-27T11:23:09.695Z,483.75
2023-02-27T11:24:09.695Z,556.88
2023-02-27T11:25:09.499Z,585.00
2023-02-27T11:26:09.722Z,573.75
2023-02-27T11:27:09.803Z,540.00
2023-02-27T11:28:09.313Z,444.38
2023-02-27T11:29:09.939Z,421.88
2023-02-27T11:30:09.299Z,416.25
2023-02-27T11:31:09.273Z,388.12
2023-02-27T11:32:10.064Z,365.62
2023-02-27T11:33:09.964Z,331.88
2023-02-27T11:34:09.233Z,315.00
2023-02-27T11:35:09.180Z,320.62
2023-02-27T11:36:09.347Z,331.88
2023-02-27T11:37:09.591Z,348.75
2023-02-27T11:38:10.002Z,354.38
2023-02-27T11:39:09.881Z,365.62
2023-02-27T11:40:09.205Z,427.50
2023-02-27T11:41:09.487Z,534.38
2023-02-27T11:42:09.260Z,568.12
2023-02-27T11:43:09.621Z,601.88
2023-02-27T11:44:09.502Z,618.75
2023-02-27T11:45:09.841Z,652.50
2023-02-27T11:46:39.668Z,714.38
2023-02-27T11:47:09.668Z,742.50
2023-02-27T11:48:09.190Z,753.75
2023-02-27T11:49:09.326Z,787.50
2023-02-27T11:50:09.981Z,843.75
2023-02-27T11:51:09.079Z,838.12
2023-02-27T11:52:09.284Z,821.25
2023-02-27T11:53:09.090Z,798.75
2023-02-27T11:54:09.099Z,810.00
2023-02-27T11:55:09.198Z,832.50
2023-02-27T11:56:09.100Z,838.12
2023-02-27T11:57:09.222Z,781.88
2023-02-27T11:58:09.118Z,753.75
2023-02-27T11:59:09.131Z,585.00
2023-02-27T12:00:09.137Z,393.75
2023-02-27T12:01:09.147Z,360.00
2023-02-27T12:02:09.043Z,320.62
2023-02-27T12:03:09.201Z,309.38
2023-02-27T12:04:09.096Z,315.00
2023-02-27T12:05:09.036Z,371.25
2023-02-27T12:06:09.036Z,388.12
2023-02-27T12:07:09.916Z,534.38
2023-02-27T12:08:09.205Z,596.25
2023-02-27T12:09:09.219Z,1125.00
2023-02-27T12:10:09.207Z,1468.12
2023-02-27T12:11:14.078Z,579.38
2023-02-27T12:12:09.208Z,967.50
2023-02-27T12:13:09.233Z,320.62
2023-02-27T12:14:09.014Z,348.75
2023-02-27T12:15:08.914Z,360.00
2023-02-27T12:16:09.049Z,399.38
2023-02-27T12:17:08.896Z,410.62
2023-02-27T12:18:08.906Z,433.12
2023-02-27T12:19:08.914Z,410.62
2023-02-27T12:20:08.917Z,371.25
2023-02-27T12:21:08.932Z,382.50
2023-02-27T12:22:08.863Z,388.12
2023-02-27T12:23:09.073Z,348.75
2023-02-27T12:24:08.838Z,320.62
2023-02-27T12:25:09.093Z,326.25
2023-02-27T12:26:09.106Z,500.62
2023-02-27T12:27:08.873Z,343.12
2023-02-27T12:28:08.960Z,326.25
2023-02-27T12:29:08.810Z,382.50
2023-02-27T12:30:09.139Z,410.62
2023-02-27T12:31:08.847Z,405.00
2023-02-27T12:32:08.862Z,354.38
2023-02-27T12:33:08.778Z,309.38
2023-02-27T12:34:08.940Z,320.62
2023-02-27T12:35:08.989Z,315.00
2023-02-27T12:36:08.797Z,286.88
2023-02-27T12:37:08.806Z,264.38
2023-02-27T12:38:08.787Z,258.75
2023-02-27T12:39:09.200Z,264.38
2023-02-27T12:40:09.208Z,270.00
2023-02-27T12:41:08.852Z,292.50
2023-02-27T12:42:08.885Z,286.88
2023-02-27T12:43:10.890Z,298.12
2023-02-27T12:44:09.214Z,298.12
2023-02-27T12:45:09.242Z,298.12
2023-02-27T12:46:09.342Z,309.38
2023-02-27T12:47:08.985Z,315.00
2023-02-27T12:48:09.290Z,354.38
2023-02-27T12:49:11.326Z,393.75
2023-02-27T12:50:09.052Z,427.50
2023-02-27T12:51:09.321Z,489.38
2023-02-27T12:52:09.321Z,556.88
2023-02-27T12:53:09.484Z,624.38
2023-02-27T12:54:08.664Z,652.50
2023-02-27T12:55:08.902Z,652.50
2023-02-27T12:56:09.029Z,635.62